This is the latest recevied weather packets stored in our database for station/object IT9KVB-11. If no packets are shown the sender has not sent any weather packets the latest 10 day(s).
| Time | Temp. | Humidity | Pressure | Rain* | Wind** | Luminosity | Snow |
|---|---|---|---|---|---|---|---|
| 1777650146 | 14.44° C | 54% | 924 hPa | 0 mm | 51.86 m/s, 0° | - | - |
| 1777649230 | 14.44° C | 50% | 924 hPa | 0 mm | 51.86 m/s, 0° | - | - |
| 1777648315 | 13.33° C | 52% | 924 hPa | 0 mm | 42.02 m/s, 0° | - | - |
| 1777647399 | 16.11° C | 52% | 924 hPa | 0 mm | 38.89 m/s, 0° | - | - |
| 1777646483 | 14.44° C | 59% | 924 hPa | 0 mm | 50.07 m/s, 0° | - | - |
| 1777645567 | 15° C | 57% | 924 hPa | 0 mm | 67.95 m/s, 0° | - | - |
| 1777644651 | 16.11° C | 55% | 924 hPa | 0 mm | 47.83 m/s, 0° | - | - |
| 1777643735 | 18.33° C | 48% | 924 hPa | 0 mm | 67.95 m/s, 0° | - | - |
| 1777642818 | 17.22° C | 54% | 924 hPa | 0 mm | 83.15 m/s, 0° | - | - |
| 1777641902 | 16.67° C | 59% | 924 hPa | 0 mm | 63.03 m/s, 0° | - | - |
| 1777640986 | 17.78° C | 53% | 924 hPa | 0 mm | 67.06 m/s, 0° | - | - |
| 1777640071 | 18.89° C | 51% | 925 hPa | 0 mm | 50.96 m/s, 0° | - | - |
| 1777639154 | 18.33° C | 49% | 925 hPa | 0 mm | 54.99 m/s, 0° | - | - |
| 1777638238 | 16.67° C | 51% | 925 hPa | 0 mm | 33.98 m/s, 0° | - | - |
| 1777637323 | 19.44° C | 52% | 925 hPa | 0 mm | 54.09 m/s, 0° | - | - |
| 1777636407 | 16.11° C | 62% | 925 hPa | 0 mm | 49.17 m/s, 0° | - | - |
| 1777635491 | 16.11° C | 61% | 925 hPa | 0 mm | 58.12 m/s, 0° | - | - |
| 1777634575 | 17.78° C | 59% | 925 hPa | 0 mm | 25.93 m/s, 0° | - | - |
| 1777633659 | 18.33° C | 58% | 925 hPa | 0 mm | 42.02 m/s, 0° | - | - |
| 1777632743 | 18.33° C | 60% | 925 hPa | 0 mm | 38.89 m/s, 0° | - | - |
| 1777631827 | 16.67° C | 69% | 925 hPa | 0 mm | 45.15 m/s, 0° | - | - |
| 1777630911 | 15° C | 73% | 925 hPa | 0 mm | 47.83 m/s, 0° | - | - |
| 1777629995 | 13.89° C | 77% | 925 hPa | 0 mm | 34.87 m/s, 0° | - | - |
| 1777629079 | 14.44° C | 74% | 925 hPa | 0 mm | 15.2 m/s, 0° | - | - |
| 1777628163 | 15.56° C | 68% | 925 hPa | 0 mm | 36.21 m/s, 0° | - | - |
* Rain latest hour (hover to see other rain measurements)
** Current wind speed in m/s (hover to see current wind gust speed)